sensor_id;sensor_type;location;lat;lon;timestamp;pressure;altitude;pressure_sealevel;temperature;humidity
74893;BME280;63446;56.272;43.922;2023-05-07T00:02:01;101347.25;;;2.81;57.29
74893;BME280;63446;56.272;43.922;2023-05-07T00:04:27;101350.84;;;2.80;57.45
74893;BME280;63446;56.272;43.922;2023-05-07T00:06:54;101358.25;;;2.76;57.56
74893;BME280;63446;56.272;43.922;2023-05-07T00:09:21;101355.03;;;2.74;57.81
74893;BME280;63446;56.272;43.922;2023-05-07T00:11:47;101358.03;;;2.71;57.69
74893;BME280;63446;56.272;43.922;2023-05-07T00:14:13;101358.41;;;2.68;57.77
74893;BME280;63446;56.272;43.922;2023-05-07T00:16:39;101357.00;;;2.65;57.73
74893;BME280;63446;56.272;43.922;2023-05-07T00:19:05;101364.41;;;2.62;57.90
74893;BME280;63446;56.272;43.922;2023-05-07T00:21:31;101363.78;;;2.60;57.99
74893;BME280;63446;56.272;43.922;2023-05-07T00:23:57;101370.16;;;2.57;58.05
74893;BME280;63446;56.272;43.922;2023-05-07T00:26:23;101366.16;;;2.55;58.12
74893;BME280;63446;56.272;43.922;2023-05-07T00:28:50;101372.38;;;2.54;58.38
74893;BME280;63446;56.272;43.922;2023-05-07T00:31:16;101365.53;;;2.53;58.34
74893;BME280;63446;56.272;43.922;2023-05-07T00:33:42;101375.38;;;2.51;58.34
74893;BME280;63446;56.272;43.922;2023-05-07T00:36:08;101371.13;;;2.50;58.45
74893;BME280;63446;56.272;43.922;2023-05-07T00:38:34;101377.34;;;2.49;58.47
74893;BME280;63446;56.272;43.922;2023-05-07T00:41:00;101374.13;;;2.47;58.66
74893;BME280;63446;56.272;43.922;2023-05-07T00:43:28;101381.97;;;2.47;58.69
74893;BME280;63446;56.272;43.922;2023-05-07T00:45:55;101377.72;;;2.45;58.78
74893;BME280;63446;56.272;43.922;2023-05-07T00:48:22;101375.13;;;2.45;58.86
74893;BME280;63446;56.272;43.922;2023-05-07T00:50:50;101372.50;;;2.45;58.94
74893;BME280;63446;56.272;43.922;2023-05-07T00:53:16;101376.13;;;2.44;59.01
74893;BME280;63446;56.272;43.922;2023-05-07T00:55:42;101382.34;;;2.43;59.15
74893;BME280;63446;56.272;43.922;2023-05-07T00:58:08;101386.56;;;2.44;59.40
74893;BME280;63446;56.272;43.922;2023-05-07T01:00:34;101387.34;;;2.45;59.32
74893;BME280;63446;56.272;43.922;2023-05-07T01:03:01;101381.53;;;2.43;59.39
74893;BME280;63446;56.272;43.922;2023-05-07T01:05:27;101386.38;;;2.46;59.52
74893;BME280;63446;56.272;43.922;2023-05-07T01:07:55;101379.16;;;2.48;59.47
74893;BME280;63446;56.272;43.922;2023-05-07T01:10:22;101387.63;;;2.50;59.59
74893;BME280;63446;56.272;43.922;2023-05-07T01:12:48;101393.63;;;2.51;59.67
74893;BME280;63446;56.272;43.922;2023-05-07T01:15:16;101384.44;;;2.55;59.62
74893;BME280;63446;56.272;43.922;2023-05-07T01:17:42;101389.28;;;2.58;59.46
74893;BME280;63446;56.272;43.922;2023-05-07T01:20:15;101398.34;;;2.62;59.65
74893;BME280;63446;56.272;43.922;2023-05-07T01:22:43;101392.53;;;2.66;59.34
74893;BME280;63446;56.272;43.922;2023-05-07T01:25:10;101391.16;;;2.71;59.43
74893;BME280;63446;56.272;43.922;2023-05-07T01:27:40;101391.19;;;2.77;59.37
74893;BME280;63446;56.272;43.922;2023-05-07T01:30:07;101392.22;;;2.83;59.30
74893;BME280;63446;56.272;43.922;2023-05-07T01:32:38;101396.88;;;2.87;59.22
74893;BME280;63446;56.272;43.922;2023-05-07T01:35:11;101397.72;;;2.94;59.05
74893;BME280;63446;56.272;43.922;2023-05-07T01:37:39;101392.97;;;3.05;58.97
74893;BME280;63446;56.272;43.922;2023-05-07T01:40:07;101398.03;;;3.13;59.04
74893;BME280;63446;56.272;43.922;2023-05-07T01:42:32;101399.47;;;3.22;58.78
74893;BME280;63446;56.272;43.922;2023-05-07T01:44:59;101399.91;;;3.32;58.84
74893;BME280;63446;56.272;43.922;2023-05-07T01:47:26;101403.66;;;3.71;58.14
74893;BME280;63446;56.272;43.922;2023-05-07T01:49:53;101408.66;;;5.12;56.56
74893;BME280;63446;56.272;43.922;2023-05-07T01:52:18;101407.59;;;6.78;54.24
74893;BME280;63446;56.272;43.922;2023-05-07T01:54:44;101404.97;;;8.59;51.29
74893;BME280;63446;56.272;43.922;2023-05-07T01:57:10;101409.50;;;10.13;48.42
74893;BME280;63446;56.272;43.922;2023-05-07T01:59:37;101417.22;;;10.87;47.28
74893;BME280;63446;56.272;43.922;2023-05-07T02:02:03;101410.41;;;12.16;45.24
74893;BME280;63446;56.272;43.922;2023-05-07T02:04:31;101418.75;;;13.30;43.43
74893;BME280;63446;56.272;43.922;2023-05-07T02:06:57;101410.88;;;14.37;41.50
74893;BME280;63446;56.272;43.922;2023-05-07T02:09:23;101418.53;;;14.79;40.94
74893;BME280;63446;56.272;43.922;2023-05-07T02:11:50;101416.19;;;14.37;41.22
74893;BME280;63446;56.272;43.922;2023-05-07T02:14:17;101421.34;;;15.19;39.75
74893;BME280;63446;56.272;43.922;2023-05-07T02:16:46;101426.06;;;16.16;38.36
74893;BME280;63446;56.272;43.922;2023-05-07T02:19:13;101428.69;;;17.22;36.87
74893;BME280;63446;56.272;43.922;2023-05-07T02:21:39;101424.59;;;17.67;36.17
74893;BME280;63446;56.272;43.922;2023-05-07T02:24:06;101419.44;;;18.96;34.32
74893;BME280;63446;56.272;43.922;2023-05-07T02:26:32;101428.78;;;20.39;32.53
74893;BME280;63446;56.272;43.922;2023-05-07T02:28:57;101432.28;;;21.80;31.08
74893;BME280;63446;56.272;43.922;2023-05-07T02:31:24;101427.97;;;23.20;29.52
74893;BME280;63446;56.272;43.922;2023-05-07T02:33:49;101437.47;;;24.46;28.08
74893;BME280;63446;56.272;43.922;2023-05-07T02:36:15;101434.97;;;24.78;27.81
74893;BME280;63446;56.272;43.922;2023-05-07T02:38:50;101444.72;;;26.00;26.50
74893;BME280;63446;56.272;43.922;2023-05-07T02:41:16;101441.63;;;26.96;25.19
74893;BME280;63446;56.272;43.922;2023-05-07T02:43:42;101444.91;;;27.99;24.47
74893;BME280;63446;56.272;43.922;2023-05-07T02:46:09;101436.81;;;29.02;23.53
74893;BME280;63446;56.272;43.922;2023-05-07T02:48:39;101450.88;;;30.05;22.62
74893;BME280;63446;56.272;43.922;2023-05-07T02:51:05;101451.19;;;30.92;21.78
74893;BME280;63446;56.272;43.922;2023-05-07T02:53:32;101448.00;;;31.77;21.00
74893;BME280;63446;56.272;43.922;2023-05-07T02:55:59;101450.84;;;32.52;20.41
74893;BME280;63446;56.272;43.922;2023-05-07T02:58:26;101439.69;;;33.20;19.61
74893;BME280;63446;56.272;43.922;2023-05-07T03:00:52;101446.38;;;33.89;19.37
74893;BME280;63446;56.272;43.922;2023-05-07T03:03:52;101450.72;;;34.80;18.81
74893;BME280;63446;56.272;43.922;2023-05-07T03:06:18;101455.00;;;35.46;18.27
74893;BME280;63446;56.272;43.922;2023-05-07T03:08:44;101461.94;;;36.12;17.62
74893;BME280;63446;56.272;43.922;2023-05-07T03:11:10;101465.22;;;36.50;17.64
74893;BME280;63446;56.272;43.922;2023-05-07T03:13:36;101454.81;;;37.01;17.10
74893;BME280;63446;56.272;43.922;2023-05-07T03:16:03;101461.56;;;37.56;16.73
74893;BME280;63446;56.272;43.922;2023-05-07T03:18:29;101462.88;;;38.17;16.48
74893;BME280;63446;56.272;43.922;2023-05-07T03:20:55;101459.81;;;38.73;16.11
74893;BME280;63446;56.272;43.922;2023-05-07T03:23:21;101464.09;;;39.33;15.56
74893;BME280;63446;56.272;43.922;2023-05-07T03:25:47;101464.88;;;39.33;15.45
74893;BME280;63446;56.272;43.922;2023-05-07T03:28:13;101462.00;;;39.75;15.39
74893;BME280;63446;56.272;43.922;2023-05-07T03:30:45;101467.91;;;40.12;15.19
74893;BME280;63446;56.272;43.922;2023-05-07T03:33:11;101462.88;;;40.54;14.99
74893;BME280;63446;56.272;43.922;2023-05-07T03:35:38;101460.84;;;41.11;14.72
74893;BME280;63446;56.272;43.922;2023-05-07T03:38:04;101468.00;;;41.62;14.44
74893;BME280;63446;56.272;43.922;2023-05-07T03:40:33;101467.00;;;41.96;14.19
74893;BME280;63446;56.272;43.922;2023-05-07T03:42:59;101466.78;;;42.40;14.06
74893;BME280;63446;56.272;43.922;2023-05-07T03:45:26;101462.88;;;42.83;13.65
74893;BME280;63446;56.272;43.922;2023-05-07T03:48:06;101460.13;;;43.26;13.63
74893;BME280;63446;56.272;43.922;2023-05-07T03:50:32;101457.66;;;43.61;13.33
74893;BME280;63446;56.272;43.922;2023-05-07T03:52:58;101455.69;;;44.00;13.10
74893;BME280;63446;56.272;43.922;2023-05-07T03:55:25;101464.25;;;44.35;13.12
74893;BME280;63446;56.272;43.922;2023-05-07T03:57:56;101465.72;;;44.61;13.01
74893;BME280;63446;56.272;43.922;2023-05-07T04:00:23;101463.63;;;44.85;12.77
74893;BME280;63446;56.272;43.922;2023-05-07T04:02:49;101461.91;;;45.17;12.82
74893;BME280;63446;56.272;43.922;2023-05-07T04:05:21;101467.41;;;45.47;12.54
74893;BME280;63446;56.272;43.922;2023-05-07T04:07:50;101462.69;;;45.73;12.43
74893;BME280;63446;56.272;43.922;2023-05-07T04:10:20;101471.69;;;46.03;12.33
74893;BME280;63446;56.272;43.922;2023-05-07T04:12:48;101452.47;;;46.32;11.93
74893;BME280;63446;56.272;43.922;2023-05-07T04:15:18;101458.84;;;46.58;11.98
74893;BME280;63446;56.272;43.922;2023-05-07T04:17:46;101450.88;;;46.77;11.74
74893;BME280;63446;56.272;43.922;2023-05-07T04:20:16;101460.88;;;46.89;11.47
74893;BME280;63446;56.272;43.922;2023-05-07T04:22:43;101463.78;;;47.01;11.57
74893;BME280;63446;56.272;43.922;2023-05-07T04:25:09;101471.03;;;47.18;11.33
74893;BME280;63446;56.272;43.922;2023-05-07T04:27:36;101452.09;;;47.39;11.44
74893;BME280;63446;56.272;43.922;2023-05-07T04:30:03;101467.19;;;47.53;11.22
74893;BME280;63446;56.272;43.922;2023-05-07T04:32:33;101463.91;;;47.60;11.56
74893;BME280;63446;56.272;43.922;2023-05-07T04:35:00;101462.72;;;47.78;11.49
74893;BME280;63446;56.272;43.922;2023-05-07T04:37:26;101458.75;;;48.02;11.46
74893;BME280;63446;56.272;43.922;2023-05-07T04:39:53;101471.03;;;48.21;11.16
74893;BME280;63446;56.272;43.922;2023-05-07T04:42:19;101464.94;;;48.39;11.29
74893;BME280;63446;56.272;43.922;2023-05-07T04:44:45;101463.94;;;48.54;11.08
74893;BME280;63446;56.272;43.922;2023-05-07T04:47:12;101469.31;;;48.63;10.75
74893;BME280;63446;56.272;43.922;2023-05-07T04:49:38;101460.66;;;48.78;10.99
74893;BME280;63446;56.272;43.922;2023-05-07T04:52:05;101454.28;;;48.83;10.91
74893;BME280;63446;56.272;43.922;2023-05-07T04:54:32;101457.56;;;49.04;10.52
74893;BME280;63446;56.272;43.922;2023-05-07T04:56:59;101457.06;;;49.22;10.61
74893;BME280;63446;56.272;43.922;2023-05-07T04:59:25;101460.03;;;49.47;10.46
74893;BME280;63446;56.272;43.922;2023-05-07T05:01:50;101457.69;;;49.68;10.55
74893;BME280;63446;56.272;43.922;2023-05-07T05:04:16;101458.09;;;49.89;10.25
74893;BME280;63446;56.272;43.922;2023-05-07T05:06:42;101459.28;;;50.04;10.51
74893;BME280;63446;56.272;43.922;2023-05-07T05:09:10;101455.00;;;49.98;10.42
74893;BME280;63446;56.272;43.922;2023-05-07T05:11:37;101453.31;;;49.72;10.28
74893;BME280;63446;56.272;43.922;2023-05-07T05:14:03;101460.44;;;49.73;10.59
74893;BME280;63446;56.272;43.922;2023-05-07T05:16:29;101460.41;;;49.90;10.51
74893;BME280;63446;56.272;43.922;2023-05-07T05:18:55;101462.06;;;50.10;10.33
74893;BME280;63446;56.272;43.922;2023-05-07T05:21:21;101455.22;;;50.00;9.97
74893;BME280;63446;56.272;43.922;2023-05-07T05:23:49;101453.88;;;50.12;10.20
74893;BME280;63446;56.272;43.922;2023-05-07T05:26:21;101450.72;;;50.27;9.94
74893;BME280;63446;56.272;43.922;2023-05-07T05:28:47;101447.91;;;49.85;10.41
74893;BME280;63446;56.272;43.922;2023-05-07T05:31:15;101451.06;;;50.12;10.06
74893;BME280;63446;56.272;43.922;2023-05-07T05:33:41;101437.06;;;50.06;10.11
74893;BME280;63446;56.272;43.922;2023-05-07T05:36:11;101445.34;;;50.29;9.82
74893;BME280;63446;56.272;43.922;2023-05-07T05:38:39;101439.22;;;50.61;10.19
74893;BME280;63446;56.272;43.922;2023-05-07T05:41:06;101441.00;;;48.95;10.56
74893;BME280;63446;56.272;43.922;2023-05-07T05:43:32;101444.03;;;46.26;11.31
74893;BME280;63446;56.272;43.922;2023-05-07T05:45:58;101445.97;;;43.05;12.14
74893;BME280;63446;56.272;43.922;2023-05-07T05:48:24;101440.78;;;41.88;12.50
74893;BME280;63446;56.272;43.922;2023-05-07T05:50:51;101447.38;;;41.72;12.75
74893;BME280;63446;56.272;43.922;2023-05-07T05:53:18;101444.81;;;42.24;12.57
74893;BME280;63446;56.272;43.922;2023-05-07T05:55:44;101443.44;;;41.42;12.96
74893;BME280;63446;56.272;43.922;2023-05-07T05:58:11;101446.06;;;39.53;13.52
74893;BME280;63446;56.272;43.922;2023-05-07T06:00:41;101440.53;;;37.26;14.40
74893;BME280;63446;56.272;43.922;2023-05-07T06:03:07;101439.88;;;35.34;15.01
74893;BME280;63446;56.272;43.922;2023-05-07T06:05:34;101440.31;;;33.64;15.94
74893;BME280;63446;56.272;43.922;2023-05-07T06:08:00;101443.75;;;31.98;16.63
74893;BME280;63446;56.272;43.922;2023-05-07T06:10:30;101442.66;;;30.46;17.41
74893;BME280;63446;56.272;43.922;2023-05-07T06:12:56;101448.25;;;29.11;18.02
74893;BME280;63446;56.272;43.922;2023-05-07T06:15:22;101451.19;;;28.03;18.81
74893;BME280;63446;56.272;43.922;2023-05-07T06:17:48;101449.91;;;27.19;19.59
74893;BME280;63446;56.272;43.922;2023-05-07T06:20:15;101443.88;;;26.43;19.96
74893;BME280;63446;56.272;43.922;2023-05-07T06:22:41;101441.13;;;25.96;20.46
74893;BME280;63446;56.272;43.922;2023-05-07T06:25:09;101452.06;;;25.31;20.75
74893;BME280;63446;56.272;43.922;2023-05-07T06:27:36;101452.44;;;24.68;20.78
74893;BME280;63446;56.272;43.922;2023-05-07T06:30:02;101451.31;;;23.99;21.15
74893;BME280;63446;56.272;43.922;2023-05-07T06:32:31;101454.56;;;23.51;21.87
74893;BME280;63446;56.272;43.922;2023-05-07T06:34:57;101448.63;;;23.15;22.22
74893;BME280;63446;56.272;43.922;2023-05-07T06:37:23;101453.16;;;23.03;22.00
74893;BME280;63446;56.272;43.922;2023-05-07T06:39:56;101455.06;;;22.64;22.50
74893;BME280;63446;56.272;43.922;2023-05-07T06:42:22;101461.19;;;22.17;22.70
74893;BME280;63446;56.272;43.922;2023-05-07T06:44:49;101462.19;;;21.78;23.09
74893;BME280;63446;56.272;43.922;2023-05-07T06:47:17;101456.94;;;21.38;23.60
74893;BME280;63446;56.272;43.922;2023-05-07T06:49:46;101462.41;;;21.16;23.54
74893;BME280;63446;56.272;43.922;2023-05-07T06:52:15;101468.25;;;21.09;23.64
74893;BME280;63446;56.272;43.922;2023-05-07T06:54:41;101465.06;;;20.98;23.68
74893;BME280;63446;56.272;43.922;2023-05-07T06:57:08;101465.88;;;20.99;23.77
74893;BME280;63446;56.272;43.922;2023-05-07T06:59:34;101471.03;;;20.87;23.81
74893;BME280;63446;56.272;43.922;2023-05-07T07:02:00;101478.53;;;20.67;23.88
74893;BME280;63446;56.272;43.922;2023-05-07T07:04:26;101472.72;;;20.43;23.80
74893;BME280;63446;56.272;43.922;2023-05-07T07:07:00;101472.50;;;20.08;24.25
74893;BME280;63446;56.272;43.922;2023-05-07T07:09:27;101481.50;;;19.90;24.56
74893;BME280;63446;56.272;43.922;2023-05-07T07:11:54;101478.31;;;19.65;24.87
74893;BME280;63446;56.272;43.922;2023-05-07T07:14:21;101478.22;;;19.57;24.83
74893;BME280;63446;56.272;43.922;2023-05-07T07:16:50;101482.88;;;19.51;25.01
74893;BME280;63446;56.272;43.922;2023-05-07T07:19:18;101486.78;;;19.45;25.07
74893;BME280;63446;56.272;43.922;2023-05-07T07:21:47;101478.38;;;19.24;25.09
74893;BME280;63446;56.272;43.922;2023-05-07T07:24:14;101481.53;;;18.98;25.37
74893;BME280;63446;56.272;43.922;2023-05-07T07:26:50;101486.81;;;18.76;25.46
74893;BME280;63446;56.272;43.922;2023-05-07T07:29:17;101486.81;;;18.76;25.71
74893;BME280;63446;56.272;43.922;2023-05-07T07:31:44;101485.13;;;18.80;25.59
74893;BME280;63446;56.272;43.922;2023-05-07T07:34:10;101485.41;;;18.78;25.38
74893;BME280;63446;56.272;43.922;2023-05-07T07:36:36;101492.00;;;18.67;25.78
74893;BME280;63446;56.272;43.922;2023-05-07T07:39:02;101499.34;;;18.62;26.05
74893;BME280;63446;56.272;43.922;2023-05-07T07:41:28;101489.31;;;18.67;26.13
74893;BME280;63446;56.272;43.922;2023-05-07T07:43:54;101489.63;;;18.66;26.02
74893;BME280;63446;56.272;43.922;2023-05-07T07:46:21;101480.97;;;18.55;25.87
74893;BME280;63446;56.272;43.922;2023-05-07T07:48:47;101483.13;;;18.39;25.52
74893;BME280;63446;56.272;43.922;2023-05-07T07:51:13;101480.22;;;18.22;26.05
74893;BME280;63446;56.272;43.922;2023-05-07T07:53:40;101487.69;;;18.06;25.66
74893;BME280;63446;56.272;43.922;2023-05-07T07:56:07;101495.44;;;17.89;26.01
74893;BME280;63446;56.272;43.922;2023-05-07T07:58:34;101499.34;;;17.77;26.33
74893;BME280;63446;56.272;43.922;2023-05-07T08:01:01;101488.94;;;17.76;26.01
74893;BME280;63446;56.272;43.922;2023-05-07T08:03:27;101489.50;;;17.73;26.00
74893;BME280;63446;56.272;43.922;2023-05-07T08:05:57;101494.84;;;17.73;25.67
74893;BME280;63446;56.272;43.922;2023-05-07T08:08:24;101491.63;;;17.71;26.01
74893;BME280;63446;56.272;43.922;2023-05-07T08:10:51;101490.53;;;17.72;25.93
74893;BME280;63446;56.272;43.922;2023-05-07T08:13:24;101501.50;;;17.75;25.99
74893;BME280;63446;56.272;43.922;2023-05-07T08:15:51;101499.00;;;17.84;26.17
74893;BME280;63446;56.272;43.922;2023-05-07T08:18:16;101500.56;;;18.04;26.09
74893;BME280;63446;56.272;43.922;2023-05-07T08:20:44;101499.88;;;18.31;25.84
74893;BME280;63446;56.272;43.922;2023-05-07T08:23:14;101504.88;;;18.51;25.43
74893;BME280;63446;56.272;43.922;2023-05-07T08:25:41;101506.78;;;18.65;25.26
74893;BME280;63446;56.272;43.922;2023-05-07T08:28:08;101508.84;;;18.68;25.15
74893;BME280;63446;56.272;43.922;2023-05-07T08:30:35;101505.06;;;18.55;25.07
74893;BME280;63446;56.272;43.922;2023-05-07T08:33:01;101509.09;;;18.39;25.41
74893;BME280;63446;56.272;43.922;2023-05-07T08:35:26;101502.41;;;18.22;25.78
74893;BME280;63446;56.272;43.922;2023-05-07T08:37:54;101507.13;;;18.12;25.61
74893;BME280;63446;56.272;43.922;2023-05-07T08:40:25;101518.28;;;18.00;25.80
74893;BME280;63446;56.272;43.922;2023-05-07T08:42:53;101509.69;;;17.84;25.87
74893;BME280;63446;56.272;43.922;2023-05-07T08:45:20;101507.53;;;17.62;26.11
74893;BME280;63446;56.272;43.922;2023-05-07T08:47:58;101517.25;;;17.34;26.45
74893;BME280;63446;56.272;43.922;2023-05-07T08:50:29;101508.72;;;17.08;26.65
74893;BME280;63446;56.272;43.922;2023-05-07T08:52:56;101520.91;;;16.95;26.75
74893;BME280;63446;56.272;43.922;2023-05-07T08:55:24;101518.78;;;16.92;26.62
74893;BME280;63446;56.272;43.922;2023-05-07T08:57:50;101516.91;;;16.93;26.53
74893;BME280;63446;56.272;43.922;2023-05-07T09:00:19;101512.34;;;16.93;26.80
74893;BME280;63446;56.272;43.922;2023-05-07T09:02:49;101515.50;;;17.00;26.95
74893;BME280;63446;56.272;43.922;2023-05-07T09:05:15;101518.56;;;17.13;26.90
74893;BME280;63446;56.272;43.922;2023-05-07T09:07:41;101513.16;;;17.18;26.82
74893;BME280;63446;56.272;43.922;2023-05-07T09:10:07;101510.47;;;17.18;26.51
74893;BME280;63446;56.272;43.922;2023-05-07T09:12:35;101515.88;;;17.13;26.64
74893;BME280;63446;56.272;43.922;2023-05-07T09:15:04;101521.56;;;17.06;26.42
74893;BME280;63446;56.272;43.922;2023-05-07T09:17:33;101506.84;;;17.08;26.20
74893;BME280;63446;56.272;43.922;2023-05-07T09:20:04;101512.34;;;17.17;26.28
74893;BME280;63446;56.272;43.922;2023-05-07T09:22:32;101515.41;;;17.29;26.54
74893;BME280;63446;56.272;43.922;2023-05-07T09:25:03;101508.38;;;17.39;26.27
74893;BME280;63446;56.272;43.922;2023-05-07T09:27:30;101505.47;;;17.35;25.75
74893;BME280;63446;56.272;43.922;2023-05-07T09:29:58;101522.94;;;17.27;25.44
74893;BME280;63446;56.272;43.922;2023-05-07T09:32:25;101517.13;;;17.20;25.62
74893;BME280;63446;56.272;43.922;2023-05-07T09:34:51;101522.19;;;17.22;25.59
74893;BME280;63446;56.272;43.922;2023-05-07T09:37:21;101530.44;;;17.25;25.78
74893;BME280;63446;56.272;43.922;2023-05-07T09:39:49;101527.25;;;17.23;25.57
74893;BME280;63446;56.272;43.922;2023-05-07T09:42:23;101526.97;;;17.25;25.45
74893;BME280;63446;56.272;43.922;2023-05-07T09:44:52;101525.09;;;17.25;25.50
74893;BME280;63446;56.272;43.922;2023-05-07T09:47:24;101537.38;;;17.26;25.51
74893;BME280;63446;56.272;43.922;2023-05-07T09:49:55;101522.06;;;17.32;25.59
74893;BME280;63446;56.272;43.922;2023-05-07T09:52:24;101535.53;;;17.46;25.80
74893;BME280;63446;56.272;43.922;2023-05-07T09:54:54;101542.38;;;17.57;25.71
74893;BME280;63446;56.272;43.922;2023-05-07T09:57:24;101542.28;;;17.62;25.55
74893;BME280;63446;56.272;43.922;2023-05-07T09:59:55;101542.50;;;17.66;25.84
74893;BME280;63446;56.272;43.922;2023-05-07T10:02:25;101536.88;;;17.67;25.85
74893;BME280;63446;56.272;43.922;2023-05-07T10:04:54;101547.00;;;17.70;25.91
74893;BME280;63446;56.272;43.922;2023-05-07T10:07:25;101539.19;;;17.74;26.01
74893;BME280;63446;56.272;43.922;2023-05-07T10:09:55;101554.97;;;17.75;26.01
74893;BME280;63446;56.272;43.922;2023-05-07T10:12:31;101561.66;;;17.73;26.03
74893;BME280;63446;56.272;43.922;2023-05-07T10:15:07;101545.91;;;17.71;26.00
74893;BME280;63446;56.272;43.922;2023-05-07T10:17:37;101550.53;;;17.66;26.17
74893;BME280;63446;56.272;43.922;2023-05-07T10:20:05;101550.59;;;17.61;26.18
74893;BME280;63446;56.272;43.922;2023-05-07T10:22:44;101543.72;;;17.54;26.51
74893;BME280;63446;56.272;43.922;2023-05-07T10:25:39;101554.97;;;17.51;26.43
74893;BME280;63446;56.272;43.922;2023-05-07T10:28:14;101550.09;;;17.58;26.47
74893;BME280;63446;56.272;43.922;2023-05-07T10:31:10;101549.75;;;17.65;26.12
74893;BME280;63446;56.272;43.922;2023-05-07T10:33:46;101546.97;;;17.51;26.12
74893;BME280;63446;56.272;43.922;2023-05-07T10:36:14;101557.97;;;17.26;26.17
74893;BME280;63446;56.272;43.922;2023-05-07T10:38:40;101547.81;;;16.99;26.47
74893;BME280;63446;56.272;43.922;2023-05-07T10:41:07;101553.25;;;16.89;26.54
74893;BME280;63446;56.272;43.922;2023-05-07T10:43:41;101570.31;;;16.93;26.44
74893;BME280;63446;56.272;43.922;2023-05-07T10:51:35;101568.50;;;17.12;26.39
74893;BME280;63446;56.272;43.922;2023-05-07T10:56:45;101571.00;;;17.03;26.46
74893;BME280;63446;56.272;43.922;2023-05-07T11:01:56;101574.69;;;16.78;27.36
74893;BME280;63446;56.272;43.922;2023-05-07T11:04:41;101567.53;;;16.74;27.22
74893;BME280;63446;56.272;43.922;2023-05-07T11:07:24;101558.97;;;16.77;27.28
74893;BME280;63446;56.272;43.922;2023-05-07T11:15:12;101564.50;;;16.86;26.53
74893;BME280;63446;56.272;43.922;2023-05-07T11:17:55;101565.41;;;16.76;26.56
74893;BME280;63446;56.272;43.922;2023-05-07T11:20:51;101577.22;;;16.59;26.80
74893;BME280;63446;56.272;43.922;2023-05-07T11:26:44;101575.16;;;16.51;27.15
74893;BME280;63446;56.272;43.922;2023-05-07T11:29:13;101568.72;;;16.57;27.15
74893;BME280;63446;56.272;43.922;2023-05-07T11:31:41;101569.28;;;16.54;27.37
74893;BME280;63446;56.272;43.922;2023-05-07T11:34:08;101572.22;;;16.53;27.17
74893;BME280;63446;56.272;43.922;2023-05-07T11:36:34;101577.31;;;16.49;27.09
74893;BME280;63446;56.272;43.922;2023-05-07T11:39:03;101581.84;;;16.49;26.84
74893;BME280;63446;56.272;43.922;2023-05-07T11:41:35;101575.22;;;16.46;26.89
74893;BME280;63446;56.272;43.922;2023-05-07T11:44:02;101581.84;;;16.49;26.83
74893;BME280;63446;56.272;43.922;2023-05-07T11:46:28;101578.72;;;16.36;26.61
74893;BME280;63446;56.272;43.922;2023-05-07T11:48:55;101579.66;;;16.17;26.72
74893;BME280;63446;56.272;43.922;2023-05-07T11:51:23;101585.13;;;15.91;27.23
74893;BME280;63446;56.272;43.922;2023-05-07T11:53:52;101581.78;;;15.70;27.50
74893;BME280;63446;56.272;43.922;2023-05-07T11:56:19;101591.13;;;15.57;27.53
74893;BME280;63446;56.272;43.922;2023-05-07T11:58:47;101602.31;;;15.54;27.73
74893;BME280;63446;56.272;43.922;2023-05-07T12:01:13;101596.44;;;15.52;27.69
74893;BME280;63446;56.272;43.922;2023-05-07T12:03:41;101598.03;;;15.58;28.01
74893;BME280;63446;56.272;43.922;2023-05-07T12:06:08;101602.81;;;15.56;28.04
74893;BME280;63446;56.272;43.922;2023-05-07T12:08:39;101599.38;;;15.56;28.30
74893;BME280;63446;56.272;43.922;2023-05-07T12:11:14;101595.66;;;15.52;28.63
74893;BME280;63446;56.272;43.922;2023-05-07T12:13:42;101592.47;;;15.45;28.61
74893;BME280;63446;56.272;43.922;2023-05-07T12:16:09;101596.78;;;15.35;28.23
74893;BME280;63446;56.272;43.922;2023-05-07T12:18:36;101599.72;;;15.29;27.83
74893;BME280;63446;56.272;43.922;2023-05-07T12:21:03;101596.53;;;15.22;27.84
74893;BME280;63446;56.272;43.922;2023-05-07T12:23:29;101596.53;;;15.17;27.96
74893;BME280;63446;56.272;43.922;2023-05-07T12:25:55;101603.22;;;15.09;27.95
74893;BME280;63446;56.272;43.922;2023-05-07T12:28:21;101602.69;;;15.02;27.80
74893;BME280;63446;56.272;43.922;2023-05-07T12:30:48;101604.28;;;14.98;28.26
74893;BME280;63446;56.272;43.922;2023-05-07T12:33:24;101609.88;;;14.96;28.57
74893;BME280;63446;56.272;43.922;2023-05-07T12:35:50;101618.13;;;15.00;28.63
74893;BME280;63446;56.272;43.922;2023-05-07T12:38:19;101624.00;;;15.07;28.79
74893;BME280;63446;56.272;43.922;2023-05-07T12:40:47;101625.03;;;15.16;28.44
74893;BME280;63446;56.272;43.922;2023-05-07T12:43:28;101624.22;;;15.21;28.52
74893;BME280;63446;56.272;43.922;2023-05-07T12:45:56;101635.69;;;15.26;28.39
74893;BME280;63446;56.272;43.922;2023-05-07T12:48:23;101633.03;;;15.26;28.59
74893;BME280;63446;56.272;43.922;2023-05-07T12:50:56;101621.03;;;15.19;29.04
74893;BME280;63446;56.272;43.922;2023-05-07T12:53:25;101630.34;;;15.16;29.12
74893;BME280;63446;56.272;43.922;2023-05-07T12:55:55;101632.22;;;15.10;29.12
74893;BME280;63446;56.272;43.922;2023-05-07T12:58:30;101630.09;;;15.02;29.49
74893;BME280;63446;56.272;43.922;2023-05-07T13:00:59;101637.56;;;14.90;29.32
74893;BME280;63446;56.272;43.922;2023-05-07T13:03:33;101627.44;;;14.72;28.99
74893;BME280;63446;56.272;43.922;2023-05-07T13:06:05;101631.66;;;14.52;29.12